createdAt,value
2023-03-02T00:01:48.213Z,20.80
2023-03-02T00:04:21.514Z,21.03
2023-03-02T00:06:52.742Z,20.00
2023-03-02T00:09:20.764Z,22.63
2023-03-02T00:11:49.013Z,19.60
2023-03-02T00:14:17.039Z,23.83
2023-03-02T00:16:44.943Z,21.17
2023-03-02T00:19:12.978Z,19.27
2023-03-02T00:21:41.281Z,19.60
2023-03-02T00:24:10.888Z,20.03
2023-03-02T00:26:38.921Z,21.80
2023-03-02T00:29:07.069Z,21.97
2023-03-02T00:31:35.380Z,20.97
2023-03-02T00:34:03.328Z,21.23
2023-03-02T00:36:31.222Z,18.53
2023-03-02T00:38:59.327Z,19.07
2023-03-02T00:41:28.998Z,19.77
2023-03-02T00:43:57.243Z,20.83
2023-03-02T00:46:26.216Z,20.97
2023-03-02T00:48:54.133Z,23.80
2023-03-02T00:51:22.365Z,20.83
2023-03-02T00:53:50.279Z,22.80
2023-03-02T00:56:18.452Z,20.63
2023-03-02T00:58:51.846Z,22.57
2023-03-02T01:01:20.273Z,23.77
2023-03-02T01:03:51.946Z,21.93
2023-03-02T01:06:22.401Z,21.73
2023-03-02T01:08:50.945Z,20.33
2023-03-02T01:11:21.345Z,22.23
2023-03-02T01:13:51.262Z,22.50
2023-03-02T01:16:19.291Z,22.23
2023-03-02T01:18:47.316Z,19.47
2023-03-02T01:21:16.713Z,25.03
2023-03-02T01:23:45.473Z,20.03
2023-03-02T01:26:13.398Z,22.17
2023-03-02T01:28:41.323Z,21.73
2023-03-02T01:31:11.076Z,23.80
2023-03-02T01:33:39.056Z,23.17
2023-03-02T01:36:08.048Z,21.17
2023-03-02T01:38:36.051Z,20.80
2023-03-02T01:41:04.008Z,19.73
2023-03-02T01:43:31.908Z,21.97
2023-03-02T01:46:02.664Z,22.87
2023-03-02T01:48:53.208Z,19.03
2023-03-02T01:51:48.208Z,19.07
2023-03-02T01:54:23.099Z,18.83
2023-03-02T01:57:00.135Z,22.40
2023-03-02T01:59:31.280Z,23.20
2023-03-02T02:02:02.723Z,20.83
2023-03-02T02:04:33.330Z,23.00
2023-03-02T02:07:04.439Z,23.53
2023-03-02T02:09:36.304Z,21.07
2023-03-02T02:12:05.838Z,22.47
2023-03-02T02:14:35.110Z,25.80
2023-03-02T02:17:03.568Z,23.43
2023-03-02T02:19:42.813Z,18.70
2023-03-02T02:22:11.933Z,23.20
2023-03-02T02:24:47.055Z,22.20
2023-03-02T02:27:16.603Z,24.63
2023-03-02T02:29:48.291Z,21.73
2023-03-02T02:32:20.094Z,20.70
2023-03-02T02:34:51.770Z,24.20
2023-03-02T02:37:23.748Z,23.10
2023-03-02T02:39:53.239Z,23.10
2023-03-02T02:42:29.066Z,27.27
2023-03-02T02:44:59.022Z,22.47
2023-03-02T02:47:29.006Z,22.70
2023-03-02T02:49:58.107Z,24.97
2023-03-02T02:52:29.051Z,23.47
2023-03-02T02:54:58.838Z,26.47
2023-03-02T02:57:30.906Z,24.50
2023-03-02T03:00:01.002Z,24.20
2023-03-02T03:02:35.737Z,24.73
2023-03-02T03:05:03.773Z,22.77
2023-03-02T03:07:34.923Z,28.63
2023-03-02T03:10:09.636Z,26.87
2023-03-02T03:12:40.889Z,24.13
2023-03-02T03:15:10.604Z,25.47
2023-03-02T03:17:38.573Z,24.70
2023-03-02T03:20:09.414Z,24.40
2023-03-02T03:22:41.083Z,25.13
2023-03-02T03:25:15.548Z,26.93
2023-03-02T03:27:47.192Z,25.03
2023-03-02T03:30:16.142Z,24.57
2023-03-02T03:32:44.779Z,25.73
2023-03-02T03:35:14.552Z,26.17
2023-03-02T03:37:43.074Z,26.20
2023-03-02T03:40:12.764Z,22.20
2023-03-02T03:42:44.040Z,24.47
2023-03-02T03:45:13.717Z,24.00
2023-03-02T03:47:43.962Z,27.23
2023-03-02T03:50:12.499Z,26.63
2023-03-02T03:52:41.539Z,25.90
2023-03-02T03:55:17.645Z,28.70
2023-03-02T03:57:47.683Z,26.47
2023-03-02T04:00:19.044Z,23.80
2023-03-02T04:02:52.620Z,26.60
2023-03-02T04:05:21.463Z,23.97
2023-03-02T04:07:53.108Z,23.83
2023-03-02T04:10:22.228Z,26.00
2023-03-02T04:12:52.498Z,26.63
2023-03-02T04:15:21.857Z,28.23
2023-03-02T04:17:52.263Z,25.77
2023-03-02T04:20:23.238Z,23.50
2023-03-02T04:22:55.312Z,24.13
2023-03-02T04:25:25.411Z,25.97
2023-03-02T04:27:57.193Z,22.60
2023-03-02T04:30:30.058Z,23.97
2023-03-02T04:32:58.404Z,23.87
2023-03-02T04:35:29.295Z,28.30
2023-03-02T04:37:57.457Z,26.03
2023-03-02T04:40:26.126Z,26.30
2023-03-02T04:42:54.030Z,23.27
2023-03-02T04:45:22.267Z,24.70
2023-03-02T04:47:51.622Z,26.13
2023-03-02T04:50:19.604Z,21.47
2023-03-02T04:52:47.970Z,25.40
2023-03-02T04:55:20.636Z,25.57
2023-03-02T04:57:49.080Z,27.77
2023-03-02T05:00:19.673Z,23.63
2023-03-02T05:02:47.933Z,27.20
2023-03-02T05:05:20.160Z,25.10
2023-03-02T05:07:48.432Z,24.87
2023-03-02T05:10:17.729Z,25.67
2023-03-02T05:12:58.112Z,26.83
2023-03-02T05:15:28.810Z,25.93
2023-03-02T05:17:57.214Z,25.20
2023-03-02T05:20:27.552Z,27.60
2023-03-02T05:22:56.491Z,26.87
2023-03-02T05:25:25.118Z,29.00
2023-03-02T05:27:53.762Z,24.23
2023-03-02T05:30:22.626Z,24.77
2023-03-02T05:32:51.259Z,29.87
2023-03-02T05:35:19.635Z,26.17
2023-03-02T05:37:48.979Z,25.97
2023-03-02T05:40:20.281Z,27.60
2023-03-02T05:42:48.581Z,25.93
2023-03-02T05:45:20.878Z,25.23
2023-03-02T05:47:48.938Z,23.73
2023-03-02T05:50:17.099Z,29.03
2023-03-02T05:52:45.389Z,29.10
2023-03-02T05:55:15.045Z,28.27
2023-03-02T05:57:43.401Z,25.33
2023-03-02T06:00:13.331Z,25.13
2023-03-02T06:02:41.436Z,27.83
2023-03-02T06:05:12.495Z,26.40
2023-03-02T06:07:41.056Z,26.93
2023-03-02T06:10:11.575Z,30.47
2023-03-02T06:12:41.308Z,26.77
2023-03-02T06:15:10.480Z,26.83
2023-03-02T06:17:38.382Z,28.17
2023-03-02T06:20:10.854Z,28.20
2023-03-02T06:22:41.111Z,24.33
2023-03-02T06:25:10.678Z,26.10
2023-03-02T06:27:41.160Z,26.27
2023-03-02T06:30:12.360Z,25.93
2023-03-02T06:32:40.408Z,28.20
2023-03-02T06:35:09.823Z,29.70
2023-03-02T06:37:37.844Z,33.30
2023-03-02T06:40:10.356Z,37.20
2023-03-02T06:42:40.284Z,32.90
2023-03-02T06:45:09.913Z,28.00
2023-03-02T06:47:37.806Z,27.73
2023-03-02T06:50:06.654Z,32.83
2023-03-02T06:52:35.117Z,28.57
2023-03-02T06:55:03.729Z,29.50
2023-03-02T06:57:34.147Z,33.73
2023-03-02T07:00:09.467Z,31.70
2023-03-02T07:02:37.632Z,28.43
2023-03-02T07:05:06.661Z,29.67
2023-03-02T07:07:34.574Z,27.03
2023-03-02T07:10:02.560Z,33.17
2023-03-02T07:12:30.473Z,31.70
2023-03-02T07:14:58.453Z,31.10
2023-03-02T07:17:27.811Z,25.83
2023-03-02T07:19:55.809Z,30.77
2023-03-02T07:22:24.068Z,33.23
2023-03-02T07:24:52.020Z,32.23
2023-03-02T07:27:19.922Z,32.20
2023-03-02T07:29:47.900Z,37.27
2023-03-02T07:32:15.900Z,31.30
2023-03-02T07:34:45.309Z,35.33
2023-03-02T07:37:13.241Z,28.20
2023-03-02T07:39:41.071Z,30.43
2023-03-02T07:42:11.366Z,29.57
2023-03-02T07:44:41.839Z,29.07
2023-03-02T07:47:09.871Z,35.93
2023-03-02T07:49:37.837Z,27.97
2023-03-02T07:52:07.232Z,31.83
2023-03-02T07:54:35.140Z,28.83
2023-03-02T07:57:03.164Z,30.43
2023-03-02T07:59:31.034Z,32.87
2023-03-02T08:01:59.077Z,27.40
2023-03-02T08:04:27.456Z,28.83
2023-03-02T08:06:55.547Z,29.50
2023-03-02T08:09:24.907Z,28.03
2023-03-02T08:11:52.761Z,31.57
2023-03-02T08:14:20.698Z,31.43
2023-03-02T08:16:48.638Z,29.07
2023-03-02T08:19:16.739Z,28.00
2023-03-02T08:21:45.099Z,26.93
2023-03-02T08:24:13.058Z,29.03
2023-03-02T08:26:42.344Z,30.60
2023-03-02T08:29:10.836Z,30.57
2023-03-02T08:31:38.785Z,28.23
2023-03-02T08:34:06.858Z,25.63
2023-03-02T08:36:34.898Z,26.87
2023-03-02T08:39:03.054Z,25.80
2023-03-02T08:41:31.411Z,30.83
2023-03-02T08:44:00.713Z,27.43
2023-03-02T08:46:28.774Z,30.90
2023-03-02T08:48:56.669Z,34.73
2023-03-02T08:51:26.564Z,28.53
2023-03-02T08:53:56.753Z,25.70
2023-03-02T08:56:27.041Z,26.53
2023-03-02T08:58:58.440Z,33.50
2023-03-02T09:01:30.061Z,32.13
2023-03-02T09:03:59.773Z,23.47
2023-03-02T09:06:29.600Z,25.37
2023-03-02T09:08:57.804Z,27.17
2023-03-02T09:11:26.293Z,32.57
2023-03-02T09:13:54.908Z,26.50
2023-03-02T09:16:25.739Z,27.00
2023-03-02T09:18:55.367Z,25.90
2023-03-02T09:21:23.563Z,22.07
2023-03-02T09:23:53.704Z,26.50
2023-03-02T09:26:21.651Z,22.97
2023-03-02T09:28:49.695Z,23.43
2023-03-02T09:31:17.721Z,22.80
2023-03-02T09:33:45.803Z,21.87
2023-03-02T09:36:21.532Z,23.53
2023-03-02T09:38:49.819Z,24.67
2023-03-02T09:41:53.237Z,26.30
2023-03-02T09:44:54.341Z,25.27
2023-03-02T09:47:35.448Z,24.03
2023-03-02T09:50:16.778Z,22.23
2023-03-02T09:52:53.796Z,24.63
2023-03-02T09:55:26.130Z,21.17
2023-03-02T09:57:55.828Z,22.77
2023-03-02T10:00:30.037Z,23.23
2023-03-02T10:03:14.710Z,23.77
2023-03-02T10:05:45.283Z,24.60
2023-03-02T10:08:16.759Z,22.20
2023-03-02T10:10:47.595Z,25.17
2023-03-02T10:13:23.416Z,21.07
2023-03-02T10:16:03.096Z,23.27
2023-03-02T10:18:36.755Z,22.90
2023-03-02T10:21:11.567Z,22.57
2023-03-02T10:23:45.875Z,23.53
2023-03-02T10:26:24.492Z,20.67
2023-03-02T10:28:59.407Z,25.70
2023-03-02T10:31:30.291Z,23.30
2023-03-02T10:33:59.327Z,21.20
2023-03-02T10:36:30.675Z,19.93
2023-03-02T10:39:01.332Z,21.20
2023-03-02T10:41:34.092Z,21.80
2023-03-02T10:44:06.743Z,23.53
2023-03-02T10:46:42.189Z,20.07
2023-03-02T10:49:26.794Z,20.50
2023-03-02T10:52:00.896Z,21.30
2023-03-02T10:54:31.757Z,22.80
2023-03-02T10:57:02.062Z,17.47
2023-03-02T10:59:43.230Z,20.70
2023-03-02T11:02:18.278Z,20.17
2023-03-02T11:04:46.542Z,22.33
2023-03-02T11:07:18.685Z,22.53
2023-03-02T11:09:59.294Z,21.33
2023-03-02T11:12:27.451Z,25.13
2023-03-02T11:15:18.699Z,20.30
2023-03-02T11:17:49.735Z,21.77
2023-03-02T11:20:23.080Z,19.80
2023-03-02T11:23:00.273Z,23.17
2023-03-02T11:25:33.402Z,22.13
2023-03-02T11:28:06.379Z,19.90
2023-03-02T11:30:41.521Z,20.50
2023-03-02T11:33:15.844Z,20.37
2023-03-02T11:35:48.400Z,18.67
2023-03-02T11:38:22.158Z,19.77
2023-03-02T11:40:55.378Z,18.67
2023-03-02T11:43:23.412Z,21.77
2023-03-02T11:45:59.090Z,18.40
2023-03-02T11:48:32.384Z,23.73
2023-03-02T11:51:03.113Z,20.53
2023-03-02T11:53:37.809Z,19.93
2023-03-02T11:56:07.706Z,19.70
2023-03-02T11:58:35.895Z,22.30
2023-03-02T12:01:05.302Z,17.73
2023-03-02T12:03:42.082Z,19.90
2023-03-02T12:06:27.280Z,17.37
2023-03-02T12:09:08.005Z,17.13
2023-03-02T12:11:40.342Z,18.47
2023-03-02T12:14:27.411Z,18.27
2023-03-02T12:17:06.603Z,17.27
2023-03-02T12:19:42.422Z,18.37
2023-03-02T12:22:14.464Z,20.23
2023-03-02T12:24:44.747Z,23.57
2023-03-02T12:27:27.808Z,21.33
2023-03-02T12:30:10.384Z,20.47
2023-03-02T12:32:38.772Z,21.03
2023-03-02T12:35:13.265Z,20.53
2023-03-02T12:37:47.403Z,20.23
2023-03-02T12:40:54.370Z,23.20
2023-03-02T12:43:32.655Z,22.50
2023-03-02T12:46:27.020Z,22.20
2023-03-02T12:49:14.518Z,18.17
2023-03-02T12:51:51.660Z,22.23
2023-03-02T12:54:21.832Z,21.67
2023-03-02T12:56:51.526Z,19.87
2023-03-02T12:59:23.995Z,20.17
2023-03-02T13:01:51.872Z,21.40
2023-03-02T13:04:28.078Z,20.43
2023-03-02T13:06:56.199Z,21.77
2023-03-02T13:09:24.636Z,20.73
2023-03-02T13:11:54.934Z,21.47
2023-03-02T13:14:27.567Z,21.60
2023-03-02T13:16:57.880Z,19.50
2023-03-02T13:19:26.965Z,23.30
2023-03-02T13:21:55.085Z,19.47
2023-03-02T13:24:45.573Z,23.73
2023-03-02T13:27:18.638Z,24.43
2023-03-02T13:29:48.298Z,22.83
2023-03-02T13:32:19.169Z,28.87
2023-03-02T13:34:50.036Z,23.50
2023-03-02T13:37:22.714Z,22.50
2023-03-02T13:39:58.231Z,21.47
2023-03-02T13:42:28.895Z,22.17
2023-03-02T13:44:58.167Z,21.47
2023-03-02T13:47:26.248Z,21.13
2023-03-02T13:49:54.356Z,23.30
2023-03-02T13:52:28.653Z,20.63
2023-03-02T13:54:56.538Z,23.53
2023-03-02T13:57:30.784Z,21.10
2023-03-02T14:00:00.948Z,20.80
2023-03-02T14:02:30.382Z,29.07
2023-03-02T14:04:59.002Z,21.60
2023-03-02T14:07:26.993Z,21.10
2023-03-02T14:09:56.614Z,20.13
2023-03-02T14:12:28.211Z,21.63
2023-03-02T14:14:59.296Z,20.13
2023-03-02T14:17:29.004Z,20.03
2023-03-02T14:19:57.140Z,20.13
2023-03-02T14:22:29.594Z,21.07
2023-03-02T14:24:57.548Z,21.30
2023-03-02T14:27:29.312Z,23.30
2023-03-02T14:29:57.445Z,21.67
2023-03-02T14:32:25.355Z,22.20
2023-03-02T14:34:54.653Z,20.83
2023-03-02T14:37:27.869Z,20.77
2023-03-02T14:39:56.067Z,20.07
2023-03-02T14:42:24.567Z,20.90
2023-03-02T14:44:53.324Z,19.47
2023-03-02T14:47:21.933Z,24.63
2023-03-02T14:49:49.862Z,25.13
2023-03-02T14:52:24.914Z,23.07
2023-03-02T14:54:55.483Z,20.40
2023-03-02T14:57:26.097Z,21.77
2023-03-02T14:59:54.748Z,22.03
2023-03-02T15:02:27.000Z,23.13
2023-03-02T15:04:57.068Z,21.90
2023-03-02T15:07:27.749Z,21.50
2023-03-02T15:09:56.016Z,22.90
2023-03-02T15:12:24.171Z,21.33
2023-03-02T15:14:52.322Z,22.33
2023-03-02T15:17:20.328Z,22.87
2023-03-02T15:19:48.941Z,21.90
2023-03-02T15:22:17.116Z,19.80
2023-03-02T15:24:46.350Z,24.93
2023-03-02T15:27:14.250Z,23.63
2023-03-02T15:29:44.744Z,21.37
2023-03-02T15:32:13.052Z,20.13
2023-03-02T15:34:41.151Z,21.47
2023-03-02T15:37:10.430Z,28.03
2023-03-02T15:39:38.685Z,20.83
2023-03-02T15:42:08.613Z,19.57
2023-03-02T15:44:36.549Z,23.37
2023-03-02T15:47:04.680Z,23.40
2023-03-02T15:49:32.979Z,23.97
2023-03-02T15:52:00.931Z,22.97
2023-03-02T15:54:30.804Z,21.87
2023-03-02T15:56:59.037Z,21.20
2023-03-02T15:59:29.999Z,22.40
2023-03-02T16:01:59.333Z,21.93
2023-03-02T16:04:28.344Z,19.87
2023-03-02T16:06:56.358Z,21.27
2023-03-02T16:09:25.408Z,25.57
2023-03-02T16:11:54.190Z,23.13
2023-03-02T16:14:22.056Z,21.93
2023-03-02T16:16:51.843Z,25.27
2023-03-02T16:19:20.547Z,22.67
2023-03-02T16:21:49.327Z,22.73
2023-03-02T16:24:17.363Z,20.93
2023-03-02T16:26:46.153Z,21.00
2023-03-02T16:29:15.034Z,22.40
2023-03-02T16:31:46.273Z,22.17
2023-03-02T16:34:17.522Z,23.07
2023-03-02T16:36:45.991Z,28.33
2023-03-02T16:39:14.487Z,25.43
2023-03-02T16:41:46.089Z,29.77
2023-03-02T16:44:14.509Z,22.97
2023-03-02T16:46:43.492Z,23.50
2023-03-02T16:49:12.281Z,19.73
2023-03-02T16:51:42.513Z,22.80
2023-03-02T16:54:11.217Z,24.00
2023-03-02T16:56:39.679Z,21.00
2023-03-02T16:59:07.619Z,25.20
2023-03-02T17:01:35.577Z,27.37
2023-03-02T17:04:05.859Z,25.63
2023-03-02T17:06:33.965Z,26.30
2023-03-02T17:09:03.415Z,23.27
2023-03-02T17:11:31.875Z,28.50
2023-03-02T17:13:59.890Z,27.93
2023-03-02T17:16:27.976Z,28.07
2023-03-02T17:18:56.030Z,24.50
2023-03-02T17:21:24.426Z,33.70
2023-03-02T17:23:52.364Z,27.63
2023-03-02T17:26:21.649Z,31.30
2023-03-02T17:28:49.662Z,27.87
2023-03-02T17:31:17.775Z,28.67
2023-03-02T17:33:45.875Z,27.47
2023-03-02T17:36:15.365Z,30.23
2023-03-02T17:38:43.332Z,29.23
2023-03-02T17:41:12.326Z,24.37
2023-03-02T17:43:42.663Z,22.77
2023-03-02T17:46:13.034Z,22.83
2023-03-02T17:48:41.478Z,23.83
2023-03-02T17:51:11.636Z,22.90
2023-03-02T17:53:39.912Z,30.10
2023-03-02T17:56:08.134Z,28.40
2023-03-02T17:58:44.759Z,27.43
2023-03-02T18:01:16.209Z,24.30
2023-03-02T18:03:45.139Z,28.00
2023-03-02T18:06:13.320Z,20.37
2023-03-02T18:08:41.331Z,22.23
2023-03-02T18:11:09.321Z,22.93
2023-03-02T18:13:37.461Z,22.23
2023-03-02T18:16:05.990Z,20.87
2023-03-02T18:18:35.284Z,26.13
2023-03-02T18:21:03.464Z,23.57
2023-03-02T18:23:31.701Z,22.80
2023-03-02T18:25:59.665Z,26.83
2023-03-02T18:28:27.550Z,22.17
2023-03-02T18:30:55.480Z,24.10
2023-03-02T18:33:23.446Z,26.87
2023-03-02T18:35:52.866Z,23.93
2023-03-02T18:38:21.039Z,30.40
2023-03-02T18:40:49.031Z,28.33
2023-03-02T18:43:16.930Z,24.50
2023-03-02T18:45:44.915Z,23.43
2023-03-02T18:48:13.193Z,27.23
2023-03-02T18:50:41.201Z,26.47
2023-03-02T18:53:12.861Z,25.50
2023-03-02T18:55:41.249Z,24.77
2023-03-02T18:58:13.613Z,26.40
2023-03-02T19:00:41.907Z,29.17
2023-03-02T19:03:10.082Z,32.77
2023-03-02T19:05:38.368Z,37.07
2023-03-02T19:08:07.711Z,25.87
2023-03-02T19:10:38.166Z,31.40
2023-03-02T19:13:09.195Z,31.27
2023-03-02T19:15:37.139Z,29.27
2023-03-02T19:18:05.254Z,24.40
2023-03-02T19:20:33.622Z,30.60
2023-03-02T19:23:01.648Z,26.80
2023-03-02T19:25:29.544Z,32.07
2023-03-02T19:27:58.894Z,28.37
2023-03-02T19:30:28.185Z,26.00
2023-03-02T19:32:56.412Z,27.10
2023-03-02T19:35:26.180Z,30.47
2023-03-02T19:37:54.199Z,25.83
2023-03-02T19:40:24.627Z,26.33
2023-03-02T19:42:53.625Z,27.97
2023-03-02T19:45:27.191Z,28.87
2023-03-02T19:47:57.526Z,26.30
2023-03-02T19:50:27.007Z,29.83
2023-03-02T19:52:56.393Z,25.13
2023-03-02T19:55:25.639Z,28.40
2023-03-02T19:57:59.925Z,28.53
2023-03-02T20:00:31.126Z,31.83
2023-03-02T20:02:59.506Z,29.40
2023-03-02T20:05:28.378Z,31.67
2023-03-02T20:07:56.775Z,27.53
2023-03-02T20:10:31.230Z,26.07
2023-03-02T20:13:00.289Z,28.73
2023-03-02T20:15:30.311Z,28.37
2023-03-02T20:17:59.317Z,25.43
2023-03-02T20:20:27.869Z,28.90
2023-03-02T20:22:55.857Z,28.27
2023-03-02T20:25:24.128Z,32.37
2023-03-02T20:27:52.946Z,34.10
2023-03-02T20:30:30.142Z,30.50
2023-03-02T20:33:00.976Z,26.83
2023-03-02T20:35:31.107Z,30.57
2023-03-02T20:38:00.201Z,27.50
2023-03-02T20:40:29.220Z,30.03
2023-03-02T20:42:57.188Z,30.53
2023-03-02T20:45:25.519Z,27.17
2023-03-02T20:47:53.397Z,28.07
2023-03-02T20:50:26.190Z,29.63
2023-03-02T20:52:54.185Z,31.77
2023-03-02T20:55:22.383Z,27.37
2023-03-02T20:57:50.440Z,31.37
2023-03-02T21:00:21.626Z,29.30
2023-03-02T21:02:49.956Z,28.03
2023-03-02T21:05:20.702Z,29.47
2023-03-02T21:07:50.661Z,30.63
2023-03-02T21:10:21.664Z,28.50
2023-03-02T21:12:50.423Z,28.17
2023-03-02T21:15:20.301Z,29.57
2023-03-02T21:17:48.465Z,29.70
2023-03-02T21:20:18.386Z,27.40
2023-03-02T21:22:47.388Z,28.23
2023-03-02T21:25:17.347Z,30.93
2023-03-02T21:27:45.404Z,28.57
2023-03-02T21:30:19.759Z,26.60
2023-03-02T21:32:48.081Z,27.13
2023-03-02T21:35:19.839Z,28.57
2023-03-02T21:37:49.585Z,30.57
2023-03-02T21:40:22.641Z,27.10
2023-03-02T21:42:50.558Z,26.27
2023-03-02T21:45:19.374Z,26.57
2023-03-02T21:47:47.828Z,27.70
2023-03-02T21:50:19.593Z,26.27
2023-03-02T21:52:48.014Z,28.37
2023-03-02T21:55:18.355Z,25.27
2023-03-02T21:57:46.549Z,27.40
2023-03-02T22:00:22.163Z,30.10
2023-03-02T22:02:50.583Z,28.80
2023-03-02T22:05:19.365Z,29.37
2023-03-02T22:07:47.984Z,25.40
2023-03-02T22:10:25.713Z,29.20
2023-03-02T22:12:56.720Z,28.43
2023-03-02T22:15:25.132Z,27.70
2023-03-02T22:17:53.195Z,26.80
2023-03-02T22:20:21.835Z,30.13
2023-03-02T22:22:53.011Z,30.10
2023-03-02T22:25:25.838Z,28.03
2023-03-02T22:27:56.644Z,30.57
2023-03-02T22:30:25.232Z,32.30
2023-03-02T22:32:53.533Z,29.27
2023-03-02T22:35:25.118Z,28.57
2023-03-02T22:38:02.539Z,29.60
2023-03-02T22:40:36.239Z,30.40
2023-03-02T22:43:15.033Z,30.77
2023-03-02T22:45:43.697Z,30.73
2023-03-02T22:48:19.318Z,28.37
2023-03-02T22:50:51.882Z,30.77
2023-03-02T22:53:29.082Z,28.57
2023-03-02T22:56:03.844Z,28.87
2023-03-02T22:58:42.502Z,30.73
2023-03-02T23:01:20.969Z,31.27
2023-03-02T23:03:54.754Z,28.17
2023-03-02T23:06:47.924Z,30.90
2023-03-02T23:09:18.142Z,31.00
2023-03-02T23:11:47.896Z,33.00
2023-03-02T23:14:24.862Z,31.43
2023-03-02T23:16:55.789Z,31.07
2023-03-02T23:19:24.760Z,27.50
2023-03-02T23:21:52.746Z,29.37
2023-03-02T23:24:22.040Z,31.13
2023-03-02T23:26:52.885Z,28.47
2023-03-02T23:29:21.891Z,31.20
2023-03-02T23:31:50.719Z,29.40
2023-03-02T23:34:18.783Z,27.23
2023-03-02T23:36:46.702Z,28.37
2023-03-02T23:39:14.852Z,32.43
2023-03-02T23:41:42.807Z,30.80
2023-03-02T23:44:12.069Z,29.07
2023-03-02T23:46:40.086Z,27.50
2023-03-02T23:49:08.075Z,28.60
2023-03-02T23:51:36.076Z,27.53
2023-03-02T23:54:04.897Z,28.77
2023-03-02T23:56:33.094Z,32.33
2023-03-02T23:59:02.087Z,31.77
